Time;durP1;ratioP1;P1;durP2;ratioP2;P2;SDS_P1;SDS_P2;PMS_P1;PMS_P2;Temp;Humidity;BMP_temperature;BMP_pressure;BME280_temperature;BME280_humidity;BME280_pressure;Samples;Min_cycle;Max_cycle;Signal;HPM_P1;HPM_P2
2023/09/26 00:01:07;;;;;;;8.52;4.57;;;19.00;99.90;;;;;;5014544;28;20076;-67
2023/09/26 00:03:33;;;;;;;7.65;4.78;;;19.00;99.90;;;;;;5014733;28;20105;-66
2023/09/26 00:05:58;;;;;;;6.88;4.68;;;19.00;99.90;;;;;;5014010;28;20507;-66
2023/09/26 00:08:24;;;;;;;7.47;5.20;;;19.00;99.90;;;;;;5004388;28;20033;-67
2023/09/26 00:10:49;;;;;;;9.45;4.82;;;18.90;99.90;;;;;;4993722;28;20280;-66
2023/09/26 00:13:16;;;;;;;8.00;5.20;;;19.00;99.90;;;;;;4990958;28;20034;-66
2023/09/26 00:15:42;;;;;;;8.25;5.70;;;19.00;99.90;;;;;;4994051;28;20030;-66
2023/09/26 00:18:08;;;;;;;9.35;6.13;;;19.00;99.90;;;;;;4994371;28;20026;-67
2023/09/26 00:20:38;;;;;;;10.60;6.30;;;19.00;99.90;;;;;;4994615;28;20022;-66
2023/09/26 00:23:05;;;;;;;8.07;5.43;;;18.90;99.90;;;;;;4994494;28;20042;-67
2023/09/26 00:25:30;;;;;;;9.13;5.35;;;18.90;99.90;;;;;;4998078;28;20033;-66
2023/09/26 00:27:56;;;;;;;7.15;5.18;;;18.90;99.90;;;;;;5013616;28;20475;-66
2023/09/26 00:30:22;;;;;;;8.32;5.38;;;18.90;99.90;;;;;;5012276;28;20388;-67
2023/09/26 00:32:48;;;;;;;8.52;5.93;;;18.80;99.90;;;;;;5002193;28;20045;-71
2023/09/26 00:35:15;;;;;;;13.27;6.20;;;18.90;99.90;;;;;;5009128;28;20030;-66
2023/09/26 00:37:42;;;;;;;9.82;6.07;;;18.90;99.90;;;;;;5013892;28;20107;-67
2023/09/26 00:40:18;;;;;;;8.43;6.15;;;18.90;99.90;;;;;;5013808;28;20081;-71
2023/09/26 00:42:44;;;;;;;9.80;6.03;;;19.00;99.90;;;;;;5013816;28;20026;-68
2023/09/26 00:45:11;;;;;;;10.90;6.10;;;18.90;99.90;;;;;;5014006;28;20093;-72
2023/09/26 00:47:37;;;;;;;9.25;5.85;;;18.90;99.90;;;;;;5011704;28;20113;-67
2023/09/26 00:50:07;;;;;;;10.95;7.65;;;18.90;99.90;;;;;;5013485;28;20464;-71
2023/09/26 00:52:35;;;;;;;10.10;6.32;;;18.90;99.90;;;;;;5013560;28;20041;-72
2023/09/26 00:55:04;;;;;;;13.40;5.88;;;18.80;99.90;;;;;;5013676;28;20018;-68
2023/09/26 00:57:35;;;;;;;9.38;5.78;;;18.80;99.90;;;;;;5013694;28;20045;-72
2023/09/26 01:00:02;;;;;;;10.03;6.30;;;18.80;99.90;;;;;;5013607;28;20056;-72
2023/09/26 01:02:28;;;;;;;7.88;6.00;;;18.80;99.90;;;;;;5009724;28;20285;-73
2023/09/26 01:04:54;;;;;;;8.45;6.13;;;18.80;99.90;;;;;;4993872;28;20503;-72
2023/09/26 01:07:21;;;;;;;12.88;6.20;;;18.80;99.90;;;;;;4993901;28;20030;-72
2023/09/26 01:09:48;;;;;;;9.02;5.75;;;18.80;99.90;;;;;;4993831;28;20022;-68
2023/09/26 01:12:14;;;;;;;8.07;6.07;;;18.80;99.90;;;;;;4993228;28;20121;-71
2023/09/26 01:14:40;;;;;;;8.65;6.00;;;18.70;99.90;;;;;;4992605;28;20033;-71
2023/09/26 01:17:05;;;;;;;11.25;6.50;;;18.70;99.90;;;;;;4994185;28;20434;-67
2023/09/26 01:19:31;;;;;;;7.53;6.03;;;18.70;99.90;;;;;;5011461;28;20446;-72
2023/09/26 01:21:57;;;;;;;6.75;5.55;;;18.70;99.90;;;;;;5013449;28;20029;-71
2023/09/26 01:24:22;;;;;;;8.23;6.45;;;18.70;99.90;;;;;;5013012;28;20064;-73
2023/09/26 01:26:48;;;;;;;8.05;5.70;;;18.60;99.90;;;;;;5013051;28;20021;-66
2023/09/26 01:29:14;;;;;;;9.55;5.68;;;18.60;99.90;;;;;;5013145;28;20161;-69
2023/09/26 01:31:39;;;;;;;8.98;5.93;;;18.60;99.90;;;;;;5013239;28;20041;-66
2023/09/26 01:34:05;;;;;;;7.72;5.60;;;18.60;99.90;;;;;;4997841;28;20018;-66
2023/09/26 01:36:31;;;;;;;8.20;5.80;;;18.60;99.90;;;;;;4993635;28;20391;-68
2023/09/26 01:38:57;;;;;;;7.57;5.93;;;18.50;99.90;;;;;;4993297;28;20102;-66
2023/09/26 01:41:24;;;;;;;8.23;5.68;;;18.60;99.90;;;;;;4998392;28;20042;-66
2023/09/26 01:43:50;;;;;;;8.32;5.78;;;18.50;99.90;;;;;;5011958;28;20100;-66
2023/09/26 01:46:17;;;;;;;10.88;5.90;;;18.50;99.90;;;;;;5013207;28;20026;-66
2023/09/26 01:48:43;;;;;;;10.25;6.18;;;18.50;99.90;;;;;;5013094;28;20026;-67
2023/09/26 01:51:09;;;;;;;11.93;6.93;;;18.50;99.90;;;;;;5013031;28;20024;-66
2023/09/26 01:53:35;;;;;;;9.25;6.03;;;18.50;99.90;;;;;;4992856;28;20536;-67
2023/09/26 01:56:01;;;;;;;6.82;5.82;;;18.50;99.90;;;;;;4993653;28;20039;-69
2023/09/26 01:58:27;;;;;;;5.97;5.38;;;18.50;99.90;;;;;;4992859;28;20069;-66
2023/09/26 02:00:53;;;;;;;7.75;5.72;;;18.50;99.90;;;;;;4993563;28;20026;-67
2023/09/26 02:03:19;;;;;;;13.63;6.45;;;18.50;99.90;;;;;;4993203;28;20080;-66
2023/09/26 02:05:45;;;;;;;9.68;6.20;;;18.40;99.90;;;;;;4993379;28;20034;-66
2023/09/26 02:08:11;;;;;;;8.95;5.90;;;18.50;99.90;;;;;;4993258;28;20034;-71
2023/09/26 02:10:36;;;;;;;10.90;6.00;;;18.40;99.90;;;;;;4993288;28;20476;-66
2023/09/26 02:13:02;;;;;;;12.05;6.18;;;18.40;99.90;;;;;;4993303;28;20070;-67
2023/09/26 02:15:28;;;;;;;6.88;5.70;;;18.40;99.90;;;;;;4999018;28;20030;-66
2023/09/26 02:17:53;;;;;;;10.63;7.40;;;18.40;99.90;;;;;;4993232;28;20400;-66
2023/09/26 02:20:20;;;;;;;8.60;6.85;;;18.40;99.90;;;;;;4993184;28;20104;-68
2023/09/26 02:22:50;;;;;;;9.77;6.65;;;18.50;99.90;;;;;;4993324;28;20030;-66
2023/09/26 02:25:20;;;;;;;12.90;7.47;;;18.40;99.90;;;;;;4993217;28;20033;-71
2023/09/26 02:27:47;;;;;;;11.00;7.38;;;18.40;99.90;;;;;;4993319;28;20032;-70
2023/09/26 02:30:15;;;;;;;12.82;7.95;;;18.40;99.90;;;;;;4996625;28;20022;-72
2023/09/26 02:32:41;;;;;;;10.68;7.82;;;18.40;99.90;;;;;;5012671;28;20041;-67
2023/09/26 02:35:11;;;;;;;11.10;8.20;;;18.40;99.90;;;;;;5012900;28;20084;-72
2023/09/26 02:37:38;;;;;;;12.73;8.68;;;18.40;99.90;;;;;;5013810;28;20056;-68
2023/09/26 02:40:09;;;;;;;13.02;7.95;;;18.40;99.90;;;;;;5016086;28;20025;-66
2023/09/26 02:42:35;;;;;;;10.85;8.23;;;18.30;99.90;;;;;;5016065;28;20076;-66
2023/09/26 02:45:02;;;;;;;12.20;7.53;;;18.30;99.90;;;;;;5012906;28;20481;-66
2023/09/26 02:47:28;;;;;;;11.05;8.18;;;18.40;99.90;;;;;;5006444;28;20021;-67
2023/09/26 02:49:54;;;;;;;11.77;7.45;;;18.40;99.90;;;;;;5001896;28;20022;-68
2023/09/26 02:52:20;;;;;;;10.40;7.68;;;18.40;99.90;;;;;;5015623;28;20109;-66
2023/09/26 02:54:46;;;;;;;10.73;7.03;;;18.30;99.90;;;;;;5015924;28;20057;-66
2023/09/26 02:57:11;;;;;;;11.60;7.38;;;18.30;99.90;;;;;;5016075;28;20087;-68
2023/09/26 02:59:37;;;;;;;11.02;7.25;;;18.30;99.90;;;;;;5015730;28;20026;-68
2023/09/26 03:02:02;;;;;;;10.27;7.65;;;18.30;99.90;;;;;;5008656;28;20033;-67
2023/09/26 03:04:28;;;;;;;10.85;7.72;;;18.30;99.90;;;;;;5015491;28;20379;-66
2023/09/26 03:06:54;;;;;;;9.05;7.25;;;18.30;99.90;;;;;;5011880;28;20030;-66
2023/09/26 03:09:20;;;;;;;15.15;7.47;;;18.30;99.90;;;;;;5015621;28;20136;-66
2023/09/26 03:11:45;;;;;;;9.27;7.20;;;18.30;99.90;;;;;;5015420;28;20117;-66
2023/09/26 03:14:11;;;;;;;13.57;7.35;;;18.20;99.90;;;;;;5015639;28;20033;-71
2023/09/26 03:16:37;;;;;;;11.25;7.13;;;18.20;99.90;;;;;;5015321;28;20068;-66
2023/09/26 03:19:02;;;;;;;12.32;6.63;;;18.20;99.90;;;;;;5015680;28;20030;-66
2023/09/26 03:21:28;;;;;;;10.68;7.63;;;18.20;99.90;;;;;;5012791;28;20289;-66
2023/09/26 03:23:53;;;;;;;12.52;7.88;;;18.10;99.90;;;;;;5015459;28;20029;-66
2023/09/26 03:26:19;;;;;;;10.30;7.53;;;18.20;99.90;;;;;;5015304;28;20371;-67
2023/09/26 03:28:45;;;;;;;11.13;7.00;;;18.20;99.90;;;;;;5015434;28;20049;-66
2023/09/26 03:31:10;;;;;;;11.23;7.45;;;18.20;99.90;;;;;;5015009;28;20068;-66
2023/09/26 03:33:37;;;;;;;11.00;7.03;;;18.20;99.90;;;;;;5015278;28;20061;-70
2023/09/26 03:36:03;;;;;;;13.02;8.43;;;18.20;99.90;;;;;;5014856;28;20022;-66
2023/09/26 03:38:32;;;;;;;12.77;8.80;;;18.20;99.90;;;;;;4995373;28;20045;-67
2023/09/26 03:41:02;;;;;;;9.85;8.50;;;18.20;99.90;;;;;;4995576;28;20022;-71
2023/09/26 03:43:28;;;;;;;14.60;9.27;;;18.20;99.90;;;;;;4995707;28;20444;-66
2023/09/26 03:45:59;;;;;;;12.93;11.55;;;18.20;99.90;;;;;;4995385;28;20054;-67
2023/09/26 03:48:25;;;;;;;17.08;13.05;;;18.10;99.90;;;;;;4995137;28;20022;-66
2023/09/26 03:50:51;;;;;;;15.13;13.07;;;18.10;99.90;;;;;;4994894;28;20029;-67
2023/09/26 03:53:16;;;;;;;16.83;12.52;;;18.20;99.90;;;;;;5004667;28;20057;-66
2023/09/26 03:55:42;;;;;;;15.68;11.73;;;18.10;99.90;;;;;;5014730;28;20026;-67
2023/09/26 03:58:07;;;;;;;12.13;10.82;;;18.10;99.90;;;;;;5014934;28;20114;-66
2023/09/26 04:00:33;;;;;;;10.68;9.57;;;18.10;99.90;;;;;;5014573;28;20026;-66
2023/09/26 04:03:01;;;;;;;12.80;8.80;;;18.10;99.90;;;;;;5014469;28;20109;-67
2023/09/26 04:05:27;;;;;;;11.05;7.45;;;18.10;99.90;;;;;;5014184;28;20499;-70
2023/09/26 04:07:53;;;;;;;9.90;6.90;;;18.00;99.90;;;;;;5012552;28;20038;-66
2023/09/26 04:10:18;;;;;;;11.60;7.10;;;18.00;99.90;;;;;;5014669;28;20048;-66
2023/09/26 04:12:44;;;;;;;9.50;6.28;;;18.00;99.90;;;;;;5014143;28;20095;-66
2023/09/26 04:15:10;;;;;;;6.95;5.20;;;18.00;99.90;;;;;;5014564;28;20416;-66
2023/09/26 04:17:37;;;;;;;8.68;5.55;;;18.10;99.90;;;;;;5014126;28;20391;-66
2023/09/26 04:20:16;;;;;;;6.95;5.80;;;18.20;99.90;;;;;;5014278;28;20098;-66
2023/09/26 04:22:42;;;;;;;9.40;5.05;;;18.20;99.90;;;;;;5012385;28;20030;-66
2023/09/26 04:25:08;;;;;;;7.18;4.97;;;18.10;99.90;;;;;;5014441;28;20022;-66
2023/09/26 04:27:33;;;;;;;6.57;5.13;;;18.10;99.90;;;;;;5014135;28;20030;-66
2023/09/26 04:29:59;;;;;;;6.57;5.20;;;18.10;99.90;;;;;;5014134;28;20025;-66
2023/09/26 04:32:24;;;;;;;12.40;8.70;;;18.10;99.90;;;;;;5013596;28;20041;-66
2023/09/26 04:34:50;;;;;;;9.93;7.47;;;18.10;99.90;;;;;;5013937;28;20049;-66
2023/09/26 04:37:15;;;;;;;8.02;6.40;;;18.00;99.90;;;;;;5004722;28;20087;-66
2023/09/26 04:39:41;;;;;;;9.88;5.80;;;18.00;99.90;;;;;;5014080;28;20459;-70
2023/09/26 04:42:06;;;;;;;10.30;5.95;;;18.00;99.90;;;;;;5013854;28;20053;-70
2023/09/26 04:44:32;;;;;;;8.82;6.45;;;18.00;99.90;;;;;;5014003;28;20018;-71
2023/09/26 04:46:57;;;;;;;8.52;6.07;;;18.00;99.90;;;;;;5013454;28;20026;-70
2023/09/26 04:49:23;;;;;;;7.00;5.60;;;18.00;99.90;;;;;;5013877;28;20416;-66
2023/09/26 04:51:49;;;;;;;9.40;5.43;;;18.00;99.90;;;;;;5011672;28;20161;-72
2023/09/26 04:54:15;;;;;;;7.18;5.80;;;18.00;99.90;;;;;;5013855;28;20022;-66
2023/09/26 04:56:40;;;;;;;7.13;5.45;;;18.00;99.90;;;;;;5013898;28;20467;-66
2023/09/26 04:59:06;;;;;;;8.65;5.88;;;18.00;99.90;;;;;;5013510;28;20022;-68
2023/09/26 05:01:32;;;;;;;8.85;5.57;;;18.00;99.90;;;;;;5010359;28;20038;-66
2023/09/26 05:03:57;;;;;;;8.13;6.10;;;17.90;99.90;;;;;;4993429;28;20027;-67
2023/09/26 05:06:23;;;;;;;7.00;5.15;;;17.90;99.90;;;;;;4992424;28;20061;-66
2023/09/26 05:08:50;;;;;;;7.05;5.38;;;17.90;99.90;;;;;;4993758;28;20106;-66
2023/09/26 05:11:16;;;;;;;7.18;5.00;;;17.80;99.90;;;;;;5009844;28;20026;-67
2023/09/26 05:13:43;;;;;;;8.52;5.35;;;17.90;99.90;;;;;;5013508;28;20537;-67
2023/09/26 05:16:09;;;;;;;6.97;4.88;;;17.90;99.90;;;;;;5006139;28;20042;-67
2023/09/26 05:18:35;;;;;;;8.18;5.10;;;17.80;99.90;;;;;;4994858;28;20038;-66
2023/09/26 05:21:06;;;;;;;7.78;5.25;;;17.80;99.90;;;;;;4996795;28;20022;-65
2023/09/26 05:23:32;;;;;;;7.28;4.72;;;17.80;99.90;;;;;;4998749;28;20062;-68
2023/09/26 05:26:05;;;;;;;7.85;5.20;;;17.80;99.90;;;;;;5003972;28;20096;-67
2023/09/26 05:28:31;;;;;;;7.93;4.95;;;17.80;99.90;;;;;;5013192;28;20029;-66
2023/09/26 05:30:58;;;;;;;7.00;4.97;;;17.90;99.90;;;;;;4996778;28;20479;-66
2023/09/26 05:33:24;;;;;;;8.23;5.60;;;17.80;99.90;;;;;;4993680;28;20034;-65
2023/09/26 05:35:49;;;;;;;8.45;5.35;;;17.90;99.90;;;;;;5006236;28;20026;-66
2023/09/26 05:38:15;;;;;;;7.40;5.00;;;17.90;99.90;;;;;;5002550;28;20042;-67
2023/09/26 05:40:41;;;;;;;9.18;5.22;;;17.80;99.90;;;;;;4992832;28;20049;-65
2023/09/26 05:43:07;;;;;;;8.82;5.20;;;17.80;99.90;;;;;;5012251;28;20025;-67
2023/09/26 05:45:33;;;;;;;7.13;4.72;;;17.80;99.90;;;;;;5003677;28;20034;-68
2023/09/26 05:48:00;;;;;;;8.77;5.32;;;17.90;99.90;;;;;;5002789;28;20018;-68
2023/09/26 05:50:26;;;;;;;7.88;5.57;;;17.80;99.90;;;;;;5013050;28;20030;-68
2023/09/26 05:52:52;;;;;;;5.78;4.47;;;17.70;99.90;;;;;;5001132;28;20451;-69
2023/09/26 05:55:18;;;;;;;8.77;5.43;;;17.70;99.90;;;;;;4993835;28;20042;-66
2023/09/26 05:57:43;;;;;;;9.30;5.38;;;17.70;99.90;;;;;;5003975;28;20540;-66
2023/09/26 06:00:12;;;;;;;7.53;5.03;;;17.70;99.90;;;;;;5010892;28;20056;-65
2023/09/26 06:02:39;;;;;;;7.07;5.35;;;17.60;99.90;;;;;;5005844;28;20022;-65
2023/09/26 06:05:05;;;;;;;9.25;5.28;;;17.60;99.90;;;;;;5000916;28;20053;-66
2023/09/26 06:07:30;;;;;;;8.02;5.40;;;17.70;99.90;;;;;;5011029;28;20068;-65
2023/09/26 06:09:56;;;;;;;9.60;5.05;;;17.80;99.90;;;;;;5020453;28;20021;-71
2023/09/26 06:12:22;;;;;;;10.55;5.13;;;17.80;99.90;;;;;;5015856;28;20041;-70
2023/09/26 06:14:47;;;;;;;7.63;5.38;;;17.80;99.90;;;;;;5002522;28;20026;-74
2023/09/26 06:17:13;;;;;;;9.57;5.63;;;17.80;99.90;;;;;;4994713;28;20109;-68
2023/09/26 06:19:44;;;;;;;8.38;5.47;;;17.80;99.90;;;;;;4998041;28;20464;-72
2023/09/26 06:22:10;;;;;;;10.60;6.15;;;17.80;99.90;;;;;;4995886;28;20031;-72
2023/09/26 06:24:36;;;;;;;8.63;5.97;;;17.80;99.90;;;;;;4996840;28;20384;-66
2023/09/26 06:27:01;;;;;;;9.68;5.60;;;17.80;99.90;;;;;;4996688;28;20384;-66
2023/09/26 06:29:27;;;;;;;9.65;5.47;;;17.80;99.90;;;;;;4999332;28;20487;-69
2023/09/26 06:31:53;;;;;;;10.85;6.40;;;17.80;99.90;;;;;;4998536;28;20042;-66
2023/09/26 06:34:18;;;;;;;12.18;6.00;;;17.90;99.90;;;;;;5000430;28;20030;-66
2023/09/26 06:36:46;;;;;;;12.27;6.32;;;17.90;99.90;;;;;;5005338;28;20040;-66
2023/09/26 06:39:12;;;;;;;11.98;5.72;;;18.00;99.90;;;;;;4996695;28;20034;-68
2023/09/26 06:41:38;;;;;;;9.77;6.22;;;18.00;99.90;;;;;;5008808;28;20033;-67
2023/09/26 06:44:04;;;;;;;6.90;5.63;;;18.00;99.90;;;;;;4995582;28;20034;-69
2023/09/26 06:46:30;;;;;;;10.32;5.53;;;18.00;99.90;;;;;;5001601;28;20534;-69
2023/09/26 06:48:55;;;;;;;10.52;6.03;;;18.10;99.90;;;;;;5008518;28;20502;-68
2023/09/26 06:51:21;;;;;;;10.07;6.13;;;18.00;99.90;;;;;;5011939;28;20034;-68
2023/09/26 06:53:48;;;;;;;9.57;6.10;;;18.10;99.90;;;;;;4995566;28;20487;-66
2023/09/26 06:56:13;;;;;;;10.90;5.95;;;18.10;99.90;;;;;;4995049;28;20109;-65
2023/09/26 06:58:39;;;;;;;8.77;6.18;;;18.10;99.90;;;;;;5000635;28;20139;-66
2023/09/26 07:01:13;;;;;;;8.95;5.53;;;18.10;99.90;;;;;;5010603;28;20056;-66
2023/09/26 07:03:39;;;;;;;9.40;5.78;;;18.10;99.90;;;;;;5009780;28;20487;-72
2023/09/26 07:06:13;;;;;;;8.07;4.97;;;18.20;99.90;;;;;;5008276;28;20069;-63
2023/09/26 07:08:40;;;;;;;9.38;5.55;;;18.20;99.90;;;;;;5001808;28;20034;-67
2023/09/26 07:11:07;;;;;;;11.45;6.38;;;18.20;99.90;;;;;;5005680;28;20113;-66
2023/09/26 07:13:35;;;;;;;10.20;5.55;;;18.20;99.90;;;;;;5010442;28;20517;-67
2023/09/26 07:16:05;;;;;;;10.93;6.20;;;18.20;99.90;;;;;;5010703;28;20058;-68
2023/09/26 07:18:32;;;;;;;11.15;5.82;;;18.20;99.90;;;;;;5012282;28;20379;-68
2023/09/26 07:21:04;;;;;;;9.35;6.22;;;18.30;99.90;;;;;;5008117;28;20515;-66
2023/09/26 07:23:34;;;;;;;12.70;6.10;;;18.30;99.90;;;;;;5000292;28;20029;-67
2023/09/26 07:26:16;;;;;;;9.02;5.30;;;18.30;99.90;;;;;;4997631;28;20037;-66
2023/09/26 07:28:43;;;;;;;11.10;5.85;;;18.40;99.90;;;;;;5005004;28;20026;-69
2023/09/26 07:31:11;;;;;;;8.30;4.72;;;18.40;99.90;;;;;;4998619;28;20030;-67
2023/09/26 07:33:38;;;;;;;8.23;4.85;;;18.40;99.90;;;;;;5003766;28;20044;-70
2023/09/26 07:36:04;;;;;;;10.63;5.40;;;18.50;99.90;;;;;;5002644;28;20018;-69
2023/09/26 07:38:32;;;;;;;10.30;5.40;;;18.40;99.90;;;;;;4997728;28;20073;-65
2023/09/26 07:40:58;;;;;;;15.60;6.07;;;18.50;99.90;;;;;;4998436;28;20026;-67
2023/09/26 07:43:29;;;;;;;10.55;6.05;;;18.50;99.90;;;;;;5003043;28;20065;-67
2023/09/26 07:46:08;;;;;;;10.95;6.03;;;18.50;99.90;;;;;;4992258;28;20036;-64
2023/09/26 07:48:35;;;;;;;9.75;5.53;;;18.50;99.90;;;;;;4998969;28;20446;-67
2023/09/26 07:51:05;;;;;;;9.10;5.47;;;18.60;99.90;;;;;;5013300;28;20026;-68
2023/09/26 07:53:31;;;;;;;11.43;4.65;;;18.60;99.90;;;;;;4994092;28;20496;-67
2023/09/26 07:55:57;;;;;;;10.90;6.03;;;18.60;99.90;;;;;;5000204;28;20022;-66
2023/09/26 07:58:23;;;;;;;8.85;5.10;;;18.60;99.90;;;;;;4999262;28;20089;-67
2023/09/26 08:00:48;;;;;;;7.78;5.00;;;18.60;99.90;;;;;;5000353;28;20022;-74
2023/09/26 08:03:14;;;;;;;12.15;5.75;;;18.60;99.90;;;;;;5005491;28;20406;-70
2023/09/26 08:05:40;;;;;;;8.75;4.88;;;18.60;99.90;;;;;;5006157;28;20118;-66
2023/09/26 08:08:05;;;;;;;12.65;5.10;;;18.70;99.90;;;;;;5000864;28;20446;-70
2023/09/26 08:10:35;;;;;;;12.88;5.22;;;18.70;99.90;;;;;;5016360;28;20112;-65
2023/09/26 08:13:01;;;;;;;13.18;4.93;;;18.70;99.90;;;;;;5003929;28;20041;-66
2023/09/26 08:15:30;;;;;;;10.90;4.55;;;18.70;99.90;;;;;;5003935;28;20108;-69
2023/09/26 08:17:56;;;;;;;9.35;5.20;;;18.80;99.90;;;;;;5012175;28;20507;-67
2023/09/26 08:20:23;;;;;;;9.18;5.07;;;18.70;99.90;;;;;;5012939;28;20033;-66
2023/09/26 08:22:49;;;;;;;8.68;4.75;;;18.80;99.90;;;;;;5005502;28;20368;-67
2023/09/26 08:25:15;;;;;;;14.13;5.40;;;18.80;99.90;;;;;;4997871;28;20534;-65
2023/09/26 08:27:41;;;;;;;12.38;5.40;;;18.80;99.90;;;;;;5003440;28;20030;-67
2023/09/26 08:30:08;;;;;;;13.13;5.10;;;18.80;99.90;;;;;;5010468;28;20034;-67
2023/09/26 08:32:34;;;;;;;10.00;4.78;;;18.80;99.90;;;;;;5007021;28;20037;-67
2023/09/26 08:34:59;;;;;;;12.02;5.07;;;18.90;99.90;;;;;;5004176;28;20360;-69
2023/09/26 08:37:25;;;;;;;8.75;4.53;;;18.90;99.90;;;;;;4999794;28;20027;-65
2023/09/26 08:39:51;;;;;;;12.13;5.72;;;18.90;99.90;;;;;;4995864;28;20031;-64
2023/09/26 08:42:27;;;;;;;14.88;5.82;;;18.90;99.90;;;;;;5012251;28;20022;-64
2023/09/26 08:44:54;;;;;;;12.35;5.63;;;18.90;99.90;;;;;;5001736;28;20054;-64
2023/09/26 08:47:24;;;;;;;9.95;4.70;;;18.90;99.90;;;;;;5003213;28;20073;-66
2023/09/26 08:49:53;;;;;;;9.20;5.13;;;19.00;99.90;;;;;;4997566;28;20514;-64
2023/09/26 08:52:22;;;;;;;7.90;4.57;;;18.90;99.90;;;;;;5004759;28;20040;-65
2023/09/26 08:54:48;;;;;;;10.55;5.15;;;19.00;99.90;;;;;;4999841;28;20022;-68
2023/09/26 08:57:16;;;;;;;8.98;4.72;;;19.00;99.90;;;;;;5003615;28;20038;-68
2023/09/26 08:59:45;;;;;;;8.48;4.63;;;19.00;99.90;;;;;;5009532;28;20022;-66
2023/09/26 09:02:11;;;;;;;7.85;4.53;;;19.00;99.90;;;;;;4997912;28;20030;-69
2023/09/26 09:04:43;;;;;;;10.05;4.45;;;19.00;99.90;;;;;;5000445;28;20026;-67
2023/09/26 09:07:10;;;;;;;7.40;4.78;;;19.00;99.90;;;;;;5003583;28;20108;-70
2023/09/26 09:09:37;;;;;;;9.40;4.30;;;19.10;99.90;;;;;;5000648;28;20181;-65
2023/09/26 09:12:24;;;;;;;12.98;5.30;;;19.10;99.90;;;;;;4999580;28;20132;-64
2023/09/26 09:14:49;;;;;;;8.38;4.45;;;19.10;99.90;;;;;;4999323;28;20014;-66
2023/09/26 09:17:15;;;;;;;8.35;4.13;;;19.10;99.90;;;;;;5007590;28;20105;-69
2023/09/26 09:19:48;;;;;;;6.78;3.72;;;19.10;99.90;;;;;;5003537;28;20440;-66
2023/09/26 09:22:17;;;;;;;8.13;3.30;;;19.10;99.90;;;;;;5009748;28;20033;-67
2023/09/26 09:24:43;;;;;;;7.78;4.43;;;19.10;99.90;;;;;;4999949;28;20475;-69
2023/09/26 09:27:09;;;;;;;11.95;5.20;;;19.20;99.90;;;;;;5005141;28;20037;-67
2023/09/26 09:29:35;;;;;;;7.07;4.10;;;19.20;99.90;;;;;;5009194;28;20061;-65
2023/09/26 09:32:01;;;;;;;9.32;4.20;;;19.20;99.90;;;;;;5012065;28;20459;-66
2023/09/26 09:34:27;;;;;;;6.25;3.40;;;19.20;99.90;;;;;;5004920;28;20030;-67
2023/09/26 09:36:58;;;;;;;7.68;3.53;;;19.20;99.90;;;;;;5006176;28;20032;-67
2023/09/26 09:39:24;;;;;;;7.28;4.07;;;19.20;99.90;;;;;;5007963;28;20039;-66
2023/09/26 09:41:57;;;;;;;11.35;4.25;;;19.20;99.90;;;;;;5008470;28;20084;-64
2023/09/26 09:44:23;;;;;;;7.82;3.45;;;19.30;99.90;;;;;;5010813;28;20036;-65
2023/09/26 09:47:01;;;;;;;8.55;4.32;;;19.20;99.90;;;;;;5007481;28;20025;-66
2023/09/26 09:49:32;;;;;;;10.48;4.30;;;19.30;99.90;;;;;;5002655;28;20042;-64
2023/09/26 09:52:04;;;;;;;10.38;4.60;;;19.30;99.90;;;;;;5001873;28;20121;-68
2023/09/26 09:54:33;;;;;;;5.43;3.55;;;19.30;99.90;;;;;;5016120;28;20029;-67
2023/09/26 09:57:05;;;;;;;13.00;4.35;;;19.30;99.90;;;;;;5007464;28;20026;-72
2023/09/26 09:59:35;;;;;;;7.32;3.67;;;19.30;99.90;;;;;;4997509;28;20022;-66
2023/09/26 10:02:02;;;;;;;7.97;4.07;;;19.40;99.90;;;;;;4996042;28;20030;-66
2023/09/26 10:04:29;;;;;;;6.50;3.65;;;19.40;99.90;;;;;;5006478;28;20471;-71
2023/09/26 10:06:56;;;;;;;11.13;4.10;;;19.40;99.90;;;;;;5001899;28;20505;-66
2023/09/26 10:09:22;;;;;;;8.10;3.88;;;19.40;99.90;;;;;;4995937;28;20022;-69
2023/09/26 10:11:49;;;;;;;9.23;3.58;;;19.40;99.90;;;;;;5001139;28;20038;-74
2023/09/26 10:14:23;;;;;;;6.45;3.70;;;19.40;99.90;;;;;;5001735;28;20030;-68
2023/09/26 10:16:50;;;;;;;8.45;4.25;;;19.50;99.90;;;;;;5007974;28;20026;-71
2023/09/26 10:19:16;;;;;;;8.27;3.75;;;19.40;99.90;;;;;;5010189;28;20102;-67
2023/09/26 10:21:42;;;;;;;6.15;3.17;;;19.50;99.90;;;;;;5013233;28;20029;-69
2023/09/26 10:24:08;;;;;;;10.52;4.68;;;19.50;99.90;;;;;;5005577;28;20022;-70
2023/09/26 10:26:43;;;;;;;9.82;3.97;;;19.50;99.90;;;;;;5002267;28;20091;-67
2023/09/26 10:29:22;;;;;;;9.27;3.58;;;19.50;99.90;;;;;;5011718;28;20038;-66
2023/09/26 10:32:37;;;;;;;11.15;4.05;;;19.60;99.90;;;;;;5003184;28;20026;-66
2023/09/26 10:35:23;;;;;;;9.05;4.13;;;19.60;99.90;;;;;;5002969;28;20569;-66
2023/09/26 10:37:59;;;;;;;10.43;4.18;;;19.60;99.90;;;;;;5009864;28;20026;-66
2023/09/26 10:40:26;;;;;;;12.57;5.82;;;19.50;99.90;;;;;;5006439;28;20049;-65
2023/09/26 10:42:52;;;;;;;12.90;5.68;;;19.60;99.90;;;;;;5001051;28;20018;-66
2023/09/26 10:45:18;;;;;;;11.50;4.88;;;19.60;99.90;;;;;;5007088;28;20026;-73
2023/09/26 10:47:44;;;;;;;10.20;3.92;;;19.60;99.90;;;;;;5002869;28;20253;-67
2023/09/26 10:50:14;;;;;;;8.85;4.43;;;19.60;99.90;;;;;;5011791;28;20495;-67
2023/09/26 10:52:47;;;;;;;8.05;4.10;;;19.70;99.90;;;;;;5008230;28;20418;-66
2023/09/26 10:55:22;;;;;;;9.45;3.85;;;19.70;99.90;;;;;;5012073;28;20022;-67
2023/09/26 10:57:50;;;;;;;4.80;2.85;;;19.70;99.90;;;;;;5003359;28;20030;-68
2023/09/26 11:00:17;;;;;;;5.97;3.50;;;19.70;99.90;;;;;;4996955;28;20087;-66
2023/09/26 11:02:43;;;;;;;13.13;4.93;;;19.70;99.90;;;;;;4996540;28;20027;-66
2023/09/26 11:05:13;;;;;;;10.50;4.05;;;19.80;99.90;;;;;;5006957;28;20026;-66
2023/09/26 11:07:41;;;;;;;9.98;3.90;;;19.80;99.90;;;;;;5002072;28;20502;-66
2023/09/26 11:10:14;;;;;;;10.55;3.45;;;19.80;99.90;;;;;;4998331;28;20030;-66
2023/09/26 11:12:40;;;;;;;6.82;2.40;;;19.80;99.90;;;;;;4998956;28;20033;-66
2023/09/26 11:15:07;;;;;;;8.68;3.00;;;19.80;99.90;;;;;;5001105;28;20030;-67
2023/09/26 11:17:37;;;;;;;10.50;3.97;;;19.80;99.90;;;;;;5008867;28;20022;-65
2023/09/26 11:20:07;;;;;;;9.50;3.58;;;19.90;99.90;;;;;;5005518;28;20014;-65
2023/09/26 11:22:47;;;;;;;12.82;4.15;;;19.90;99.90;;;;;;5010994;28;20034;-66
2023/09/26 11:25:13;;;;;;;7.63;2.90;;;19.90;99.90;;;;;;5003272;28;20097;-66
2023/09/26 11:27:43;;;;;;;5.85;3.42;;;19.90;99.90;;;;;;5009523;28;20445;-67
2023/09/26 11:30:20;;;;;;;10.07;3.10;;;19.90;99.90;;;;;;5007690;28;20072;-66
2023/09/26 11:32:53;;;;;;;5.60;2.60;;;19.90;99.90;;;;;;5004298;28;21395;-66
2023/09/26 11:35:24;;;;;;;8.20;3.13;;;20.00;99.90;;;;;;5005245;28;20022;-69
2023/09/26 11:37:54;;;;;;;7.78;2.55;;;20.00;99.90;;;;;;5004574;28;20049;-67
2023/09/26 11:40:27;;;;;;;6.97;3.20;;;20.00;99.90;;;;;;5005461;28;20030;-69
2023/09/26 11:42:55;;;;;;;8.30;3.28;;;20.00;99.90;;;;;;5006618;28;20463;-67
2023/09/26 11:45:25;;;;;;;6.55;3.13;;;20.00;99.90;;;;;;5009933;28;20022;-67
2023/09/26 11:47:52;;;;;;;4.53;2.50;;;20.10;99.90;;;;;;5005864;28;20026;-67
2023/09/26 11:50:18;;;;;;;8.10;3.00;;;20.10;99.90;;;;;;5005380;28;20022;-68
2023/09/26 11:52:44;;;;;;;8.02;3.00;;;20.20;99.90;;;;;;5006913;28;20037;-74
2023/09/26 11:55:16;;;;;;;7.20;2.83;;;20.10;99.90;;;;;;5000763;28;20192;-67
2023/09/26 11:57:43;;;;;;;;;;;20.10;99.90;;;;;;5011651;28;20025;-67
2023/09/26 12:00:11;;;;;;;8.10;3.08;;;20.20;99.90;;;;;;5008957;28;20390;-67
2023/09/26 12:02:39;;;;;;;10.73;2.72;;;20.20;99.90;;;;;;4998043;28;20100;-67
2023/09/26 12:05:08;;;;;;;8.43;2.90;;;20.20;99.90;;;;;;5001941;28;20018;-71
2023/09/26 12:07:35;;;;;;;5.85;2.75;;;20.20;99.90;;;;;;4999391;28;20513;-67
2023/09/26 12:10:00;;;;;;;9.52;2.95;;;20.30;99.90;;;;;;4993977;28;20091;-74
2023/09/26 12:12:26;;;;;;;5.97;2.63;;;20.30;99.90;;;;;;5000193;28;20482;-70
2023/09/26 12:15:15;;;;;;;4.97;2.50;;;20.30;99.90;;;;;;4993079;28;20050;-69
2023/09/26 12:17:41;;;;;;;5.80;2.58;;;20.40;99.90;;;;;;4993524;28;20046;-72
2023/09/26 12:20:08;;;;;;;7.75;2.70;;;20.40;99.90;;;;;;5004380;28;20038;-73
2023/09/26 12:22:33;;;;;;;6.68;2.72;;;20.40;99.90;;;;;;4994273;28;20026;-68
2023/09/26 12:24:59;;;;;;;9.05;2.75;;;20.40;99.90;;;;;;5001608;28;20502;-66
2023/09/26 12:27:25;;;;;;;13.95;3.40;;;20.40;99.90;;;;;;4993270;28;20030;-66
2023/09/26 12:29:50;;;;;;;5.57;2.47;;;20.50;99.90;;;;;;4993144;28;20011;-67
2023/09/26 12:32:17;;;;;;;5.28;2.55;;;20.50;99.90;;;;;;5004093;28;20483;-67
2023/09/26 12:34:42;;;;;;;5.95;2.50;;;20.50;99.90;;;;;;5005494;28;20430;-69
2023/09/26 12:37:08;;;;;;;7.38;3.10;;;20.60;99.90;;;;;;5001244;28;20472;-67
2023/09/26 12:39:33;;;;;;;4.15;2.60;;;20.60;99.70;;;;;;5005326;28;20029;-67
2023/09/26 12:41:59;;;;;;;6.38;2.22;;;20.60;99.00;;;;;;4995656;28;20045;-68
2023/09/26 12:44:25;;;;;;;6.32;2.50;;;20.60;98.70;;;;;;4996998;28;20054;-68